Latest Weather Observations for Darwin Harbour

IDD60901

Issued at 6:51 pm CST Wednesday 18 May 2022 (issued every 10 minutes, with the page automatically refreshed every 10 minutes)

About weather observations | Map of Darwin area stations | Latest observations for Darwin area | Other Formats
Station Details ID: 014072 Name: DARWIN NTC AWS Lat: -12.47 Lon: 130.85 Height: 0.0 m
Data from the previous 72 hours. | See also: Recent months for locations in Northern Territory
Date/Time
CST
Temp
°C
App
Temp
°C
Dew
Point
°C
Rel
Hum
%
Delta-T
°C
Wind Press
QNH
hPa
Press
MSL
hPa
Rain since
9am
mm
Dir  Spd
km/h
Gust
km/h
Spd
kts
Gust
kts
18/06:30pm 29.5 - - - - NE 15 28 8 15 1011.2 1011.1 -
18/06:00pm 29.9 - - - - NE 9 19 5 10 1011.0 1010.9 -
18/05:30pm 31.9 - - - - ENE 13 20 7 11 1010.6 1010.5 -
18/05:00pm 31.9 - - - - E 13 19 7 10 1010.2 1010.1 -
18/04:30pm - - - - - E 7 13 4 7 - - -
18/04:00pm 31.9 - - - - E 11 19 6 10 1010.0 1009.9 -
18/03:30pm 31.7 - - - - E 11 19 6 10 1010.2 1010.1 -
18/03:00pm 31.6 - - - - E 19 24 10 13 1010.4 1010.3 -
18/02:30pm 31.4 - - - - ESE 26 33 14 18 1010.7 1010.6 -
18/02:00pm 30.9 - - - - ESE 24 30 13 16 1011.2 1011.1 -
18/01:30pm 30.6 - - - - E 19 26 10 14 1011.8 1011.7 -
18/01:00pm 30.2 - - - - ESE 17 24 9 13 1012.3 1012.2 -
18/12:30pm 30.5 - - - - E 20 26 11 14 1012.7 1012.6 -
18/12:00pm 29.9 - - - - E 22 32 12 17 1013.1 1013.0 -
18/11:30am 29.5 - - - - ENE 19 26 10 14 1013.7 1013.6 -
18/11:00am 29.1 - - - - E 22 30 12 16 1014.0 1013.9 -
18/10:30am 28.5 - - - - E 17 26 9 14 1014.1 1014.0 -
18/10:00am 28.1 - - - - E 19 28 10 15 1014.3 1014.2 -
18/09:30am 27.6 - - - - E 20 26 11 14 1014.2 1014.1 -
18/09:00am 27.1 - - - - E 17 26 9 14 1014.3 1014.2 -
18/08:30am 27.0 - - - - ENE 13 22 7 12 1014.2 1014.1 -
18/08:00am 26.6 - - - - ENE 9 17 5 9 1014.1 1014.0 -
18/07:30am 26.8 - - - - ENE 13 20 7 11 1013.5 1013.4 -
18/07:00am 26.5 - - - - E 17 22 9 12 1013.0 1012.9 -
18/06:30am 26.6 - - - - E 13 19 7 10 1012.8 1012.7 -
18/06:00am 26.7 - - - - E 13 17 7 9 1012.7 1012.6 -
18/05:30am 26.9 - - - - ESE 13 20 7 11 1012.5 1012.4 -
18/05:00am 26.8 - - - - ESE 13 17 7 9 1012.3 1012.2 -
18/04:30am 26.9 - - - - ESE 11 17 6 9 1012.2 1012.1 -
18/04:00am 26.7 - - - - SE 11 17 6 9 1012.2 1012.1 -
18/03:30am 27.5 - - - - E 7 13 4 7 1012.3 1012.2 -
18/03:00am 27.0 - - - - ENE 6 9 3 5 1012.4 1012.3 -
18/02:30am 26.9 - - - - ENE 2 6 1 3 1012.4 1012.3 -
18/02:00am 27.1 - - - - ENE 2 7 1 4 1012.4 1012.3 -
18/01:30am 27.6 - - - - ENE 4 9 2 5 1012.5 1012.4 -
18/01:00am 27.8 - - - - E 7 11 4 6 1012.4 1012.3 -
18/12:30am 28.2 - - - - E 9 13 5 7 1012.4 1012.3 -
18/12:00am 28.5 - - - - E 6 9 3 5 1012.5 1012.4 -
 
Date/Time
CST
Temp
°C
App
Temp
°C
Dew
Point
°C
Rel
Hum
%
Delta-T
°C
Wind Press
QNH
hPa
Press
MSL
hPa
Rain since
9am
mm
Dir  Spd
km/h
Gust
km/h
Spd
kts
Gust
kts
17/11:30pm 28.1 - - - - NE 2 4 1 2 1012.6 1012.5 -
17/11:00pm 28.3 - - - - ENE 2 6 1 3 1012.7 1012.6 -
17/10:30pm 28.4 - - - - ENE 4 9 2 5 1012.5 1012.4 -
17/10:00pm 28.2 - - - - ENE 2 6 1 3 1012.1 1012.0 -
17/09:30pm 28.3 - - - - ENE 4 9 2 5 1011.9 1011.8 -
17/09:00pm 28.3 - - - - ENE 6 9 3 5 1011.7 1011.6 -
17/08:30pm 28.4 - - - - ENE 6 9 3 5 1011.5 1011.4 -
17/08:00pm 28.7 - - - - ENE 7 17 4 9 1011.2 1011.1 -
17/07:30pm 28.9 - - - - NE 9 20 5 11 1010.8 1010.7 -
17/07:00pm 29.1 - - - - NE 11 24 6 13 1010.5 1010.4 -
17/06:30pm 29.4 - - - - NE 13 24 7 13 1010.1 1010.0 -
17/06:00pm 29.9 - - - - NE 11 22 6 12 1010.0 1009.9 -
17/05:30pm 30.1 - - - - N 13 24 7 13 1009.5 1009.4 -
17/05:00pm 30.5 - - - - NNW 11 22 6 12 1009.2 1009.1 -
17/04:30pm 30.5 - - - - NNW 11 20 6 11 1009.0 1008.9 -
17/04:00pm 30.8 - - - - N 13 20 7 11 1008.9 1008.8 -
17/03:30pm 31.2 - - - - NW 13 26 7 14 1009.1 1009.0 -
17/03:00pm 30.8 - - - - NW 13 24 7 13 1009.3 1009.2 -
17/02:30pm 30.6 - - - - WNW 7 15 4 8 1009.7 1009.6 -
17/02:00pm 32.4 - - - - ENE 6 13 3 7 1010.1 1010.0 -
17/01:30pm 30.9 - - - - ESE 15 20 8 11 1010.3 1010.2 -
17/01:00pm 30.4 - - - - ESE 13 17 7 9 1010.6 1010.5 -
17/12:30pm 30.5 - - - - ESE 11 15 6 8 1011.1 1011.0 -
17/12:00pm 29.8 - - - - ESE 15 19 8 10 1011.6 1011.5 -
17/11:30am 29.8 - - - - ESE 15 20 8 11 1011.9 1011.8 -
17/11:00am 28.9 - - - - ESE 15 19 8 10 1012.3 1012.2 -
17/10:30am 29.3 - - - - E 15 19 8 10 1012.7 1012.6 -
17/10:00am 28.6 - - - - ESE 13 19 7 10 1013.0 1012.9 -
17/09:30am 28.0 - - - - E 17 22 9 12 1013.1 1013.0 -
17/09:00am 27.9 - - - - E 17 22 9 12 1012.9 1012.8 -
17/08:30am 27.5 - - - - ESE 15 22 8 12 1012.7 1012.6 -
17/08:00am 27.4 - - - - SE 11 15 6 8 1012.4 1012.3 -
17/07:30am 27.4 - - - - ESE 7 13 4 7 1011.9 1011.8 -
17/07:00am 27.0 - - - - ENE 6 9 3 5 1011.5 1011.4 -
17/06:30am 27.3 - - - - E 7 11 4 6 1011.3 1011.2 -
17/06:00am 27.0 - - - - SE 9 13 5 7 1011.1 1011.0 -
17/05:30am 27.4 - - - - SE 9 13 5 7 1010.6 1010.5 -
17/05:00am 27.3 - - - - SSE 6 9 3 5 1010.4 1010.3 -
17/04:30am 27.4 - - - - SSE 6 9 3 5 1010.2 1010.1 -
17/04:00am 27.5 - - - - SE 6 7 3 4 1010.1 1010.0 -
17/03:30am 27.5 - - - - ESE 6 9 3 5 1010.1 1010.0 -
17/03:00am 27.8 - - - - S 9 11 5 6 1010.1 1010.0 -
17/02:30am 27.9 - - - - SSW 11 13 6 7 1010.3 1010.2 -
17/02:00am 27.8 - - - - SW 9 13 5 7 1010.5 1010.4 -
17/01:30am 28.2 - - - - WSW 7 9 4 5 1010.9 1010.8 -
17/01:00am 28.3 - - - - WSW 7 9 4 5 1010.9 1010.8 -
17/12:30am 28.3 - - - - W 7 9 4 5 1011.1 1011.0 -
17/12:00am 28.4 - - - - W 9 11 5 6 1011.2 1011.1 -
 
Date/Time
CST
Temp
°C
App
Temp
°C
Dew
Point
°C
Rel
Hum
%
Delta-T
°C
Wind Press
QNH
hPa
Press
MSL
hPa
Rain since
9am
mm
Dir  Spd
km/h
Gust
km/h
Spd
kts
Gust
kts
16/11:30pm 28.4 - - - - W 9 13 5 7 1011.2 1011.1 -
16/11:00pm 28.6 - - - - W 9 11 5 6 1011.3 1011.2 -
16/10:30pm 28.7 - - - - W 9 13 5 7 1011.3 1011.2 -
16/10:00pm 28.8 - - - - W 9 11 5 6 1011.1 1011.0 -
16/09:30pm 28.9 - - - - W 7 11 4 6 1010.8 1010.7 -
16/09:00pm 29.0 - - - - WSW 7 9 4 5 1010.5 1010.4 -
16/08:30pm 29.1 - - - - W 9 13 5 7 1010.2 1010.1 -
16/08:00pm 29.2 - - - - W 9 13 5 7 1009.9 1009.8 -
16/07:30pm 29.3 - - - - W 11 15 6 8 1009.5 1009.4 -
16/07:00pm 29.4 - - - - W 13 15 7 8 1009.2 1009.1 -
16/06:30pm 29.6 - - - - WNW 13 17 7 9 1009.0 1008.9 -
16/06:00pm 29.8 - - - - W 17 22 9 12 1008.7 1008.6 -
16/05:30pm 29.9 - - - - NW 15 22 8 12 1008.4 1008.3 -
16/05:00pm 30.3 - - - - NW 15 24 8 13 1008.3 1008.2 -
16/04:30pm 30.2 - - - - WNW 17 26 9 14 1008.1 1008.0 -
16/04:00pm 30.2 - - - - WNW 19 26 10 14 1008.0 1007.9 -
16/03:30pm 30.4 - - - - WNW 19 24 10 13 1008.3 1008.2 -
16/03:00pm 30.1 - - - - WNW 19 26 10 14 1008.5 1008.4 -
16/02:30pm 29.9 - - - - WNW 19 26 10 14 1009.0 1008.9 -
16/02:00pm 30.7 - - - - WNW 13 19 7 10 1009.5 1009.4 -
16/01:30pm 30.3 - - - - W 9 13 5 7 1010.0 1009.9 -
16/01:00pm 30.3 - - - - WSW 4 6 2 3 1010.4 1010.3 -
16/12:30pm 30.9 - - - - SSE 2 4 1 2 1010.9 1010.8 -
16/12:00pm 30.6 - - - - S 2 2 1 1 1011.4 1011.3 -
16/11:30am 29.8 - - - - SSE 2 4 1 2 1011.7 1011.6 -
16/11:00am 28.9 - - - - SE 2 4 1 2 1011.8 1011.7 -
16/10:30am 28.7 - - - - SSE 4 6 2 3 1011.9 1011.8 -
16/10:00am 28.0 - - - - SSE 6 7 3 4 1011.9 1011.8 -
16/09:30am 27.5 - - - - SE 7 9 4 5 1011.7 1011.6 -
16/09:00am 27.6 - - - - SSE 6 7 3 4 1011.5 1011.4 -
16/08:30am 27.5 - - - - SSE 6 7 3 4 1011.2 1011.1 -
16/08:00am 27.5 - - - - S 6 7 3 4 1010.8 1010.7 -
16/07:30am 27.4 - - - - SSW 6 9 3 5 1010.5 1010.4 -
16/07:00am 27.6 - - - - SW 6 7 3 4 1010.1 1010.0 -
16/06:30am 27.8 - - - - WSW 6 7 3 4 1009.7 1009.6 -
16/06:00am 27.9 - - - - WSW 7 11 4 6 1009.3 1009.2 -
16/05:30am 28.0 - - - - WSW 6 9 3 5 1009.2 1009.1 -
16/05:00am 28.0 - - - - W 7 11 4 6 1009.3 1009.2 -
16/04:30am 27.8 - - - - W 6 7 3 4 1009.3 1009.2 -
16/04:00am 28.0 - - - - W 7 11 4 6 1009.4 1009.3 -
16/03:30am 27.9 - - - - W 9 11 5 6 1009.6 1009.5 -
16/03:00am 27.9 - - - - W 7 11 4 6 1009.8 1009.7 -
16/02:30am 27.9 - - - - W 9 13 5 7 1010.2 1010.1 -
16/02:00am 27.8 - - - - W 11 13 6 7 1010.5 1010.4 -
16/01:30am 27.8 - - - - W 9 13 5 7 1010.8 1010.7 -
16/01:00am 27.9 - - - - W 9 13 5 7 1011.2 1011.1 -
16/12:30am 28.0 - - - - W 11 13 6 7 1011.3 1011.2 -
16/12:00am 28.1 - - - - WSW 15 19 8 10 1011.3 1011.2 -
 
Date/Time
CST
Temp
°C
App
Temp
°C
Dew
Point
°C
Rel
Hum
%
Delta-T
°C
Wind Press
QNH
hPa
Press
MSL
hPa
Rain since
9am
mm
Dir  Spd
km/h
Gust
km/h
Spd
kts
Gust
kts
15/11:30pm 28.1 - - - - WSW 15 20 8 11 1011.4 1011.3 -
15/11:00pm 28.2 - - - - WSW 11 15 6 8 1011.4 1011.3 -
15/10:30pm 28.3 - - - - WSW 11 15 6 8 1011.5 1011.4 -
15/10:00pm 28.5 - - - - WSW 11 13 6 7 1011.4 1011.3 -
15/09:30pm 28.6 - - - - W 11 13 6 7 1011.2 1011.1 -
15/09:00pm 28.6 - - - - W 13 17 7 9 1010.8 1010.7 -
15/08:30pm 28.8 - - - - WSW 15 19 8 10 1010.5 1010.4 -
15/08:00pm 28.8 - - - - WSW 15 20 8 11 1010.1 1010.0 -
15/07:30pm 28.9 - - - - W 15 19 8 10 1009.7 1009.6 -
15/07:00pm 29.1 - - - - W 13 17 7 9 1009.6 1009.5 -

Latest Capital City Observations: Canberra | Sydney | Melbourne | Brisbane | Adelaide | Perth | Hobart | Darwin

Other formats

Comma delimited format used in spreadsheet applications
http://www.bom.gov.au/fwo/IDD60901/IDD60901.95122.axf

JavaScript Object Notation format (JSON) in row-major order
http://www.bom.gov.au/fwo/IDD60901/IDD60901.95122.json

Data quality

Most of these data are generated automatically and are frequently updated. Quality checks on data are not normally performed. It is possible for incorrect values to appear. Refer to information at About Latest Weather Observations and please check the disclaimer before using these data.